createdAt,value
2023-03-21T00:01:04.730Z,6.35
2023-03-21T00:03:34.888Z,6.35
2023-03-21T00:06:16.577Z,6.34
2023-03-21T00:08:44.603Z,6.34
2023-03-21T00:11:12.944Z,6.34
2023-03-21T00:13:43.595Z,6.32
2023-03-21T00:16:21.540Z,6.32
2023-03-21T00:18:57.286Z,6.30
2023-03-21T00:24:15.403Z,6.32
2023-03-21T00:26:46.138Z,6.31
2023-03-21T00:29:13.130Z,6.32
2023-03-21T00:31:49.903Z,6.33
2023-03-21T00:34:20.348Z,6.33
2023-03-21T00:36:53.878Z,6.32
2023-03-21T00:39:20.817Z,6.33
2023-03-21T00:41:50.678Z,6.33
2023-03-21T00:44:17.542Z,6.33
2023-03-21T00:47:00.876Z,6.35
2023-03-21T00:49:34.000Z,6.36
2023-03-21T00:52:15.114Z,6.34
2023-03-21T00:54:48.933Z,6.36
2023-03-21T00:57:16.147Z,6.36
2023-03-21T00:59:57.577Z,6.34
2023-03-21T01:02:26.875Z,6.38
2023-03-21T01:04:54.429Z,6.36
2023-03-21T01:07:21.800Z,6.36
2023-03-21T01:09:53.024Z,6.36
2023-03-21T01:12:19.875Z,6.38
2023-03-21T01:14:47.058Z,6.38
2023-03-21T01:17:13.924Z,6.38
2023-03-21T01:19:52.296Z,6.39
2023-03-21T01:22:21.218Z,6.39
2023-03-21T01:24:56.961Z,6.39
2023-03-21T01:27:27.205Z,6.37
2023-03-21T01:29:53.986Z,6.38
2023-03-21T01:32:23.396Z,6.40
2023-03-21T01:34:50.350Z,6.40
2023-03-21T01:37:19.070Z,6.40
2023-03-21T01:39:47.863Z,6.40
2023-03-21T01:42:15.415Z,6.42
2023-03-21T01:45:03.309Z,6.42
2023-03-21T01:47:30.059Z,6.41
2023-03-21T01:50:03.716Z,6.43
2023-03-21T01:52:44.703Z,6.42
2023-03-21T01:55:15.381Z,6.41
2023-03-21T01:58:06.754Z,6.43
2023-03-21T02:00:38.020Z,6.42
2023-03-21T02:03:16.864Z,6.42
2023-03-21T02:06:08.413Z,6.42
2023-03-21T02:08:39.545Z,6.42
2023-03-21T02:11:11.294Z,6.43
2023-03-21T02:13:38.192Z,6.44
2023-03-21T02:16:32.410Z,6.45
2023-03-21T02:19:53.396Z,6.45
2023-03-21T02:23:06.694Z,6.43
2023-03-21T02:26:10.463Z,6.45
2023-03-21T02:28:57.779Z,6.44
2023-03-21T02:32:20.509Z,6.45
2023-03-21T02:35:58.603Z,6.46
2023-03-21T02:39:00.394Z,6.45
2023-03-21T02:41:55.064Z,6.47
2023-03-21T02:44:58.190Z,6.45
2023-03-21T02:47:42.652Z,6.45
2023-03-21T02:50:27.083Z,6.47
2023-03-21T02:53:06.882Z,6.49
2023-03-21T02:55:38.501Z,6.47
2023-03-21T02:58:16.493Z,6.49
2023-03-21T03:00:47.124Z,6.47
2023-03-21T03:03:27.987Z,6.46
2023-03-21T03:06:07.778Z,6.43
2023-03-21T03:09:02.908Z,6.46
2023-03-21T03:11:47.404Z,6.47
2023-03-21T03:15:03.145Z,6.47
2023-03-21T03:18:13.467Z,6.47
2023-03-21T03:21:23.000Z,6.46
2023-03-21T03:24:03.549Z,6.49
2023-03-21T03:26:43.511Z,6.46
2023-03-21T03:29:18.456Z,6.45
2023-03-21T03:32:17.451Z,6.45
2023-03-21T03:34:56.274Z,6.45
2023-03-21T03:37:37.761Z,6.45
2023-03-21T03:40:25.478Z,6.44
2023-03-21T03:43:00.630Z,6.44
2023-03-21T03:45:43.582Z,6.44
2023-03-21T03:48:29.187Z,6.43
2023-03-21T03:51:21.067Z,6.42
2023-03-21T03:54:00.720Z,6.45
2023-03-21T03:56:29.390Z,6.44
2023-03-21T03:58:57.898Z,6.44
2023-03-21T04:01:25.215Z,6.46
2023-03-21T04:04:01.024Z,6.51
2023-03-21T04:06:38.565Z,6.50
2023-03-21T04:09:19.287Z,6.53
2023-03-21T04:11:58.107Z,6.53
2023-03-21T04:14:35.594Z,6.53
2023-03-21T04:17:08.956Z,6.53
2023-03-21T04:19:36.083Z,6.55
2023-03-21T04:22:09.152Z,6.55
2023-03-21T04:24:37.392Z,6.55
2023-03-21T04:27:06.134Z,6.55
2023-03-21T04:29:33.516Z,6.54
2023-03-21T04:32:01.378Z,6.56
2023-03-21T04:34:31.493Z,6.53
2023-03-21T04:37:00.178Z,6.56
2023-03-21T04:39:27.090Z,6.58
2023-03-21T04:41:56.971Z,6.60
2023-03-21T04:44:23.582Z,6.60
2023-03-21T04:46:50.574Z,6.59
2023-03-21T04:49:18.893Z,6.59
2023-03-21T04:51:45.656Z,6.57
2023-03-21T04:56:44.680Z,6.57
2023-03-21T04:59:16.646Z,6.60
2023-03-21T05:01:43.905Z,6.59
2023-03-21T05:04:16.620Z,6.55
2023-03-21T05:06:45.960Z,6.58
2023-03-21T05:09:14.186Z,6.59
2023-03-21T05:11:44.397Z,6.60
2023-03-21T05:14:31.652Z,6.61
2023-03-21T05:17:05.487Z,6.60
2023-03-21T05:19:35.777Z,6.62
2023-03-21T05:22:10.604Z,6.60
2023-03-21T05:24:41.925Z,6.61
2023-03-21T05:27:08.776Z,6.62
2023-03-21T05:29:35.508Z,6.57
2023-03-21T05:32:02.916Z,6.60
2023-03-21T05:34:35.869Z,6.64
2023-03-21T05:37:05.554Z,6.60
2023-03-21T05:39:35.373Z,6.61
2023-03-21T05:42:18.345Z,6.63
2023-03-21T05:44:46.287Z,6.66
2023-03-21T05:47:18.849Z,6.67
2023-03-21T05:49:47.154Z,6.67
2023-03-21T05:52:14.740Z,6.69
2023-03-21T05:54:44.486Z,6.71
2023-03-21T05:57:12.043Z,6.75
2023-03-21T05:59:38.852Z,6.77
2023-03-21T06:02:06.004Z,6.80
2023-03-21T06:04:32.666Z,6.77
2023-03-21T06:06:59.527Z,6.79
2023-03-21T06:09:26.618Z,6.83
2023-03-21T06:11:57.039Z,6.82
2023-03-21T06:14:24.716Z,6.87
2023-03-21T06:16:54.531Z,6.94
2023-03-21T06:19:21.855Z,6.94
2023-03-21T06:21:54.945Z,6.95
2023-03-21T07:13:05.803Z,7.40
2023-03-21T07:15:34.347Z,7.48
2023-03-21T07:18:01.144Z,7.50
2023-03-21T07:34:00.826Z,7.80
2023-03-21T07:52:44.076Z,8.25
2023-03-21T07:55:12.272Z,8.16
2023-03-21T07:57:40.466Z,8.12
2023-03-21T08:00:08.716Z,8.24
2023-03-21T08:02:37.350Z,8.31
2023-03-21T08:05:04.725Z,8.40
2023-03-21T08:07:32.481Z,8.32
2023-03-21T08:09:59.770Z,8.40
2023-03-21T08:12:26.550Z,8.39
2023-03-21T08:14:53.207Z,8.47
2023-03-21T08:17:19.833Z,8.42
2023-03-21T08:19:46.589Z,8.39
2023-03-21T08:22:16.798Z,8.52
2023-03-21T08:24:43.567Z,8.53
2023-03-21T08:27:10.305Z,8.52
2023-03-21T08:29:43.166Z,8.50
2023-03-21T08:32:09.981Z,8.42
2023-03-21T08:34:37.180Z,8.49
2023-03-21T08:37:04.301Z,8.50
2023-03-21T08:39:33.416Z,8.52
2023-03-21T08:42:02.572Z,8.44
2023-03-21T08:44:29.268Z,8.43
2023-03-21T08:46:58.976Z,8.49
2023-03-21T08:49:26.973Z,8.44
2023-03-21T08:51:59.252Z,8.46
2023-03-21T08:54:25.919Z,8.39
2023-03-21T08:56:52.847Z,8.33
2023-03-21T08:59:21.101Z,8.40
2023-03-21T09:01:47.841Z,8.46
2023-03-21T09:04:15.729Z,8.42
2023-03-21T09:06:45.588Z,8.48
2023-03-21T09:09:12.688Z,8.47
2023-03-21T09:11:41.557Z,8.42
2023-03-21T09:14:11.817Z,8.38
2023-03-21T09:16:38.953Z,8.41
2023-03-21T09:19:09.050Z,8.31
2023-03-21T09:21:36.767Z,8.38
2023-03-21T09:24:05.683Z,8.47
2023-03-21T09:26:33.624Z,8.47
2023-03-21T09:29:01.132Z,8.54
2023-03-21T09:31:28.675Z,8.61
2023-03-21T09:34:00.590Z,8.68
2023-03-21T09:36:27.570Z,8.71
2023-03-21T09:38:58.097Z,8.80
2023-03-21T09:41:59.294Z,8.72
2023-03-21T09:44:59.748Z,8.66
2023-03-21T09:47:37.639Z,8.70
2023-03-21T09:50:21.905Z,8.72
2023-03-21T09:53:19.182Z,8.74
2023-03-21T09:55:47.128Z,8.74
2023-03-21T09:59:02.466Z,8.79
2023-03-21T10:01:41.961Z,8.90
2023-03-21T10:04:24.631Z,8.89
2023-03-21T10:07:06.549Z,8.93
2023-03-21T10:09:34.822Z,8.90
2023-03-21T10:12:16.382Z,8.94
2023-03-21T10:14:51.634Z,8.99
2023-03-21T10:17:34.277Z,8.95
2023-03-21T10:20:27.544Z,9.03
2023-03-21T10:23:04.254Z,9.00
2023-03-21T10:26:01.355Z,9.02
2023-03-21T10:28:51.970Z,9.11
2023-03-21T10:31:26.428Z,9.06
2023-03-21T10:34:02.533Z,9.20
2023-03-21T10:36:33.762Z,9.23
2023-03-21T10:39:33.313Z,9.23
2023-03-21T10:42:06.563Z,9.25
2023-03-21T10:44:36.153Z,9.30
2023-03-21T10:47:10.030Z,9.30
2023-03-21T10:50:05.826Z,9.23
2023-03-21T10:52:50.772Z,9.45
2023-03-21T10:55:33.752Z,9.36
2023-03-21T10:58:18.950Z,9.43
2023-03-21T11:00:48.003Z,9.34
2023-03-21T11:03:32.770Z,9.28
2023-03-21T11:06:27.655Z,9.47
2023-03-21T11:09:04.586Z,9.53
2023-03-21T11:12:05.779Z,9.46
2023-03-21T11:14:48.408Z,9.51
2023-03-21T11:17:17.916Z,9.64
2023-03-21T11:20:05.612Z,9.69
2023-03-21T11:22:46.547Z,9.64
2023-03-21T11:25:36.542Z,9.53
2023-03-21T11:28:15.954Z,9.44
2023-03-21T11:31:01.387Z,9.46
2023-03-21T11:33:46.402Z,9.38
2023-03-21T11:36:19.342Z,9.49
2023-03-21T11:38:58.652Z,9.46
2023-03-21T11:41:34.955Z,9.43
2023-03-21T11:44:04.885Z,9.48
2023-03-21T11:46:45.677Z,9.38
2023-03-21T11:49:12.428Z,9.49
2023-03-21T11:52:30.572Z,9.58
2023-03-21T11:55:51.597Z,9.60
2023-03-21T11:58:56.253Z,9.59
2023-03-21T12:01:57.315Z,9.58
2023-03-21T12:04:51.611Z,9.60
2023-03-21T12:08:05.016Z,9.58
2023-03-21T12:11:04.869Z,9.53
2023-03-21T12:14:09.312Z,9.53
2023-03-21T12:17:41.039Z,9.52
2023-03-21T12:20:42.080Z,9.55
2023-03-21T12:23:46.755Z,9.53
2023-03-21T12:26:28.235Z,9.47
2023-03-21T12:29:50.937Z,9.46
2023-03-21T12:32:58.298Z,9.58
2023-03-21T12:35:50.158Z,9.72
2023-03-21T12:38:44.140Z,9.53
2023-03-21T12:41:28.739Z,9.51
2023-03-21T12:44:14.715Z,9.47
2023-03-21T12:47:22.401Z,9.45
2023-03-21T12:50:15.382Z,9.39
2023-03-21T12:52:54.213Z,9.44
2023-03-21T12:55:32.459Z,9.54
2023-03-21T12:58:21.876Z,9.58
2023-03-21T13:00:58.352Z,9.78
2023-03-21T13:03:43.830Z,9.88
2023-03-21T13:06:18.356Z,10.03
2023-03-21T13:09:37.641Z,10.16
2023-03-21T13:12:49.434Z,10.46
2023-03-21T13:15:53.816Z,10.59
2023-03-21T13:18:59.581Z,10.40
2023-03-21T13:22:08.849Z,10.33
2023-03-21T13:24:50.720Z,10.17
2023-03-21T13:27:35.394Z,10.01
2023-03-21T13:30:14.542Z,9.93
2023-03-21T13:32:50.732Z,9.86
2023-03-21T13:35:41.739Z,9.77
2023-03-21T13:38:29.651Z,9.68
2023-03-21T13:41:09.437Z,9.71
2023-03-21T13:43:53.345Z,9.65
2023-03-21T13:46:28.214Z,9.62
2023-03-21T13:49:27.363Z,9.58
2023-03-21T13:51:58.851Z,9.55
2023-03-21T13:54:53.725Z,9.69
2023-03-21T13:57:31.120Z,9.77
2023-03-21T14:00:30.862Z,9.82
2023-03-21T14:03:18.555Z,9.94
2023-03-21T14:05:51.971Z,9.89
2023-03-21T14:08:48.912Z,9.99
2023-03-21T14:11:34.863Z,9.93
2023-03-21T14:14:29.910Z,9.76
2023-03-21T14:16:56.669Z,9.71
2023-03-21T14:19:32.800Z,9.72
2023-03-21T14:21:59.490Z,9.71
2023-03-21T14:24:34.400Z,9.59
2023-03-21T14:27:11.849Z,9.57
2023-03-21T14:29:40.272Z,9.56
2023-03-21T14:32:25.392Z,9.53
2023-03-21T14:34:55.547Z,9.50
2023-03-21T14:37:54.515Z,9.51
2023-03-21T14:40:27.341Z,9.53
2023-03-21T14:43:14.979Z,9.52
2023-03-21T14:45:52.839Z,9.61
2023-03-21T14:48:35.231Z,9.59
2023-03-21T14:51:12.248Z,9.59
2023-03-21T14:53:45.270Z,9.54
2023-03-21T14:56:25.610Z,9.53
2023-03-21T14:58:53.959Z,9.58
2023-03-21T15:01:35.038Z,9.54
2023-03-21T15:15:20.907Z,9.74
2023-03-21T15:17:49.778Z,9.70
2023-03-21T15:20:17.051Z,9.63
2023-03-21T15:22:57.688Z,9.51
2023-03-21T15:25:35.691Z,9.48
2023-03-21T15:28:04.872Z,9.45
2023-03-21T15:30:34.403Z,9.43
2023-03-21T15:33:21.006Z,9.42
2023-03-21T15:35:56.542Z,9.42
2023-03-21T15:38:45.695Z,9.42
2023-03-21T15:41:21.460Z,9.47
2023-03-21T15:44:10.197Z,9.45
2023-03-21T15:46:51.190Z,9.45
2023-03-21T15:49:33.557Z,9.44
2023-03-21T15:52:19.709Z,9.42
2023-03-21T15:54:59.342Z,9.36
2023-03-21T15:57:33.996Z,9.35
2023-03-21T16:00:18.311Z,9.35
2023-03-21T16:02:46.206Z,9.30
2023-03-21T16:05:30.538Z,9.33
2023-03-21T16:08:28.031Z,9.31
2023-03-21T16:11:05.602Z,9.29
2023-03-21T16:13:32.328Z,9.30
2023-03-21T16:16:02.057Z,9.26
2023-03-21T16:18:33.373Z,9.21
2023-03-21T16:21:00.099Z,9.18
2023-03-21T16:23:26.942Z,9.15
2023-03-21T16:25:57.780Z,9.11
2023-03-21T16:28:24.567Z,9.04
2023-03-21T16:30:52.713Z,9.01
2023-03-21T16:33:19.431Z,8.99
2023-03-21T16:35:46.856Z,9.00
2023-03-21T16:38:19.411Z,8.99
2023-03-21T16:40:54.553Z,8.99
2023-03-21T16:43:21.247Z,8.99
2023-03-21T16:45:48.139Z,8.96
2023-03-21T16:48:17.426Z,8.93
2023-03-21T16:50:51.128Z,8.93
2023-03-21T16:53:21.065Z,8.89
2023-03-21T16:55:48.118Z,8.83
2023-03-21T16:58:16.619Z,8.82
2023-03-21T17:00:43.546Z,8.81
2023-03-21T17:03:19.872Z,8.79
2023-03-21T17:05:46.668Z,8.77
2023-03-21T17:08:19.998Z,8.75
2023-03-21T17:10:50.247Z,8.71
2023-03-21T17:13:17.026Z,8.72
2023-03-21T17:15:46.359Z,8.70
2023-03-21T17:18:13.301Z,8.69
2023-03-21T17:20:41.874Z,8.68
2023-03-21T17:23:11.996Z,8.68
2023-03-21T17:25:39.085Z,8.67
2023-03-21T17:28:05.948Z,8.67
2023-03-21T17:30:41.891Z,8.69
2023-03-21T17:33:11.517Z,8.66
2023-03-21T17:35:57.036Z,8.64
2023-03-21T17:38:23.865Z,8.63
2023-03-21T17:40:52.657Z,8.62
2023-03-21T17:43:21.550Z,8.60
2023-03-21T17:45:48.282Z,8.58
2023-03-21T18:15:30.472Z,8.59
2023-03-21T18:45:22.929Z,8.22
2023-03-21T19:20:43.548Z,8.15
2023-03-21T19:31:21.097Z,8.03
2023-03-21T19:33:48.644Z,8.07
2023-03-21T20:53:07.500Z,8.03
2023-03-21T20:58:37.094Z,8.01
2023-03-21T21:58:23.042Z,8.26
2023-03-21T22:00:50.151Z,8.25
2023-03-21T22:03:22.402Z,8.31
2023-03-21T22:44:17.083Z,8.49
2023-03-21T22:57:30.485Z,8.55
2023-03-21T23:16:11.052Z,8.46
2023-03-21T23:18:38.544Z,8.52
2023-03-21T23:59:12.104Z,7.44
